Time;durP1;ratioP1;P1;durP2;ratioP2;P2;SDS_P1;SDS_P2;PMS_P1;PMS_P2;Temp;Humidity;BMP_temperature;BMP_pressure;BME280_temperature;BME280_humidity;BME280_pressure;Samples;Min_cycle;Max_cycle;Signal;HPM_P1;HPM_P2
2024/02/23 06:02:12;;;;;;;4.23;2.43;;;;;;;;;;5181463;23;20994;-76
2024/02/23 06:04:37;;;;;;;3.20;1.40;;;;;;;;;;5006959;28;20434;-76
2024/02/23 06:07:04;;;;;;;5.10;1.27;;;;;;;;;;5011111;28;20428;-75
2024/02/23 06:09:30;;;;;;;5.17;1.73;;;;;;;;;;5008662;28;20433;-75
2024/02/23 06:11:56;;;;;;;2.67;1.53;;;;;;;;;;5003755;28;20485;-78
2024/02/23 06:14:23;;;;;;;6.37;2.13;;;;;;;;;;5000417;28;20488;-77
2024/02/23 06:16:49;;;;;;;4.37;1.40;;;;;;;;;;4992826;28;20921;-76
2024/02/23 06:19:15;;;;;;;3.50;1.40;;;;;;;;;;4991339;28;20442;-77
2024/02/23 06:21:41;;;;;;;3.23;1.50;;;;;;;;;;4993053;28;20829;-76
2024/02/23 06:24:08;;;;;;;3.17;1.50;;;;;;;;;;4987724;28;20449;-77
2024/02/23 06:26:34;;;;;;;1.40;1.20;;;;;;;;;;5011549;28;20446;-76
2024/02/23 06:29:00;;;;;;;6.33;1.43;;;;;;;;;;4992063;28;20431;-76
2024/02/23 06:31:26;;;;;;;4.47;1.80;;;;;;;;;;4992888;28;20823;-74
2024/02/23 06:33:52;;;;;;;3.17;1.50;;;;;;;;;;4993890;28;20566;-75
2024/02/23 06:36:18;;;;;;;3.70;2.00;;;;;;;;;;4992543;28;20725;-74
2024/02/23 06:38:45;;;;;;;9.40;1.90;;;;;;;;;;4995714;28;20422;-74
2024/02/23 06:41:14;;;;;;;3.70;1.83;;;;;;;;;;5008398;28;20462;-74
2024/02/23 06:43:40;;;;;;;7.93;2.30;;;;;;;;;;4994287;28;20585;-77
2024/02/23 06:46:09;;;;;;;3.20;1.70;;;;;;;;;;5006281;28;20541;-78
2024/02/23 06:48:36;;;;;;;10.33;1.97;;;;;;;;;;4992208;28;20455;-78
2024/02/23 06:51:03;;;;;;;4.03;1.43;;;;;;;;;;4990298;28;20827;-79
2024/02/23 06:53:29;;;;;;;9.90;1.83;;;;;;;;;;4996648;28;20430;-78
2024/02/23 06:55:55;;;;;;;14.00;1.70;;;;;;;;;;4995463;28;20456;-78
2024/02/23 06:58:21;;;;;;;3.67;1.50;;;;;;;;;;4996408;28;20437;-77
2024/02/23 07:00:47;;;;;;;3.10;1.50;;;;;;;;;;4997367;28;20539;-78
2024/02/23 07:03:14;;;;;;;4.60;1.50;;;;;;;;;;4993422;28;20800;-79
2024/02/23 07:05:42;;;;;;;2.17;1.73;;;;;;;;;;5004850;28;20549;-79
2024/02/23 07:08:08;;;;;;;3.20;1.70;;;;;;;;;;4997805;28;20434;-81
2024/02/23 07:10:34;;;;;;;2.30;1.30;;;;;;;;;;5002437;28;20790;-74
2024/02/23 07:13:00;;;;;;;3.10;1.83;;;;;;;;;;4997730;28;20449;-77
2024/02/23 07:15:26;;;;;;;8.50;1.73;;;;;;;;;;5002400;28;20517;-79
2024/02/23 07:17:55;;;;;;;3.57;2.30;;;;;;;;;;5003667;28;20430;-77
2024/02/23 07:20:23;;;;;;;2.20;1.70;;;;;;;;;;5003978;28;20425;-81
2024/02/23 07:22:49;;;;;;;2.73;1.63;;;;;;;;;;5005884;28;20846;-76
2024/02/23 07:25:20;;;;;;;5.50;1.73;;;;;;;;;;5003601;28;20431;-76
2024/02/23 07:27:46;;;;;;;4.23;2.80;;;;;;;;;;5008214;28;20429;-78
2024/02/23 07:30:12;;;;;;;1.37;1.30;;;;;;;;;;5019882;28;20412;-79
2024/02/23 07:32:38;;;;;;;3.80;1.87;;;;;;;;;;5021838;28;20461;-78
2024/02/23 07:35:05;;;;;;;6.73;2.20;;;;;;;;;;5011174;28;20419;-78
2024/02/23 07:37:31;;;;;;;3.33;2.10;;;;;;;;;;4997803;28;20423;-78
2024/02/23 07:39:56;;;;;;;2.47;1.90;;;;;;;;;;4997107;28;20431;-78
2024/02/23 07:42:22;;;;;;;2.57;1.70;;;;;;;;;;4998533;28;20443;-79
2024/02/23 07:44:48;;;;;;;4.20;2.13;;;;;;;;;;5000808;28;20446;-79
2024/02/23 07:47:14;;;;;;;4.90;1.50;;;;;;;;;;5001749;28;20433;-80
2024/02/23 07:49:40;;;;;;;7.30;1.83;;;;;;;;;;5000939;28;20930;-78
2024/02/23 07:52:07;;;;;;;7.93;2.10;;;;;;;;;;5003717;28;20542;-77
2024/02/23 07:54:33;;;;;;;3.30;1.83;;;;;;;;;;5002208;28;20442;-78
2024/02/23 07:56:59;;;;;;;5.67;2.10;;;;;;;;;;5003367;28;20439;-78
2024/02/23 07:59:26;;;;;;;5.67;1.50;;;;;;;;;;5004328;28;20463;-78
2024/02/23 08:01:52;;;;;;;3.37;1.80;;;;;;;;;;5009524;28;20501;-77
2024/02/23 08:04:18;;;;;;;1.63;1.63;;;;;;;;;;5019355;28;20442;-79
2024/02/23 08:06:43;;;;;;;10.70;1.63;;;;;;;;;;5015693;28;20418;-78
2024/02/23 08:09:09;;;;;;;3.00;1.17;;;;;;;;;;5015186;28;20414;-78
2024/02/23 08:11:35;;;;;;;9.10;1.60;;;;;;;;;;5015064;28;20495;-78
2024/02/23 08:14:02;;;;;;;1.77;1.07;;;;;;;;;;5003035;28;20902;-80
2024/02/23 08:16:28;;;;;;;3.03;1.70;;;;;;;;;;5004927;28;20421;-79
2024/02/23 08:18:54;;;;;;;4.90;1.67;;;;;;;;;;5023087;28;20410;-79
2024/02/23 08:21:20;;;;;;;2.37;1.80;;;;;;;;;;5018364;28;20446;-80
2024/02/23 08:23:46;;;;;;;1.63;1.53;;;;;;;;;;5005056;28;20423;-79
2024/02/23 08:26:12;;;;;;;4.60;1.60;;;;;;;;;;5016407;28;20479;-80
2024/02/23 08:28:38;;;;;;;2.67;1.50;;;;;;;;;;5029707;28;20414;-80
2024/02/23 08:31:04;;;;;;;1.90;1.23;;;;;;;;;;5018712;28;20465;-80
2024/02/23 08:33:30;;;;;;;8.23;1.60;;;;;;;;;;5018914;28;20497;-79
2024/02/23 08:35:57;;;;;;;5.63;1.80;;;;;;;;;;5020591;28;20410;-79
2024/02/23 08:38:23;;;;;;;5.80;1.90;;;;;;;;;;5005558;28;20829;-81
2024/02/23 08:40:50;;;;;;;6.70;1.70;;;;;;;;;;4997858;28;20447;-79
2024/02/23 08:43:16;;;;;;;6.40;1.80;;;;;;;;;;5003103;28;20888;-79
2024/02/23 08:45:42;;;;;;;6.37;1.70;;;;;;;;;;5015187;28;20418;-79
2024/02/23 08:48:08;;;;;;;7.60;1.70;;;;;;;;;;5012669;28;20422;-79
2024/02/23 08:50:34;;;;;;;5.60;1.63;;;;;;;;;;5018443;28;20901;-78
2024/02/23 08:53:00;;;;;;;5.17;1.70;;;;;;;;;;5019544;28;20505;-79
2024/02/23 08:55:26;;;;;;;6.03;1.90;;;;;;;;;;5016647;28;20414;-79
2024/02/23 08:57:52;;;;;;;2.33;1.40;;;;;;;;;;5011667;28;20449;-79
2024/02/23 09:00:18;;;;;;;2.60;1.30;;;;;;;;;;4996143;28;20419;-80
2024/02/23 09:02:44;;;;;;;8.83;1.90;;;;;;;;;;5001910;28;20410;-80
2024/02/23 09:05:10;;;;;;;2.40;1.40;;;;;;;;;;5013169;28;20995;-79
2024/02/23 09:07:36;;;;;;;4.17;1.57;;;;;;;;;;5000058;28;20969;-80
2024/02/23 09:10:04;;;;;;;2.03;1.50;;;;;;;;;;5008816;28;20423;-78
2024/02/23 09:12:30;;;;;;;6.10;1.50;;;;;;;;;;4993506;28;20481;-79
2024/02/23 09:14:56;;;;;;;5.40;1.90;;;;;;;;;;4999383;28;20419;-78
2024/02/23 09:17:23;;;;;;;3.87;2.43;;;;;;;;;;5007908;28;20415;-77
2024/02/23 09:19:49;;;;;;;2.20;1.40;;;;;;;;;;5003072;28;20426;-79
2024/02/23 09:22:15;;;;;;;7.07;2.00;;;;;;;;;;5010515;28;20477;-76
2024/02/23 09:24:41;;;;;;;2.80;1.30;;;;;;;;;;5007718;28;20422;-76
2024/02/23 09:27:07;;;;;;;2.80;1.70;;;;;;;;;;5014265;28;20421;-78
2024/02/23 09:29:34;;;;;;;6.03;2.53;;;;;;;;;;5010852;28;20418;-80
2024/02/23 09:32:00;;;;;;;2.20;1.60;;;;;;;;;;5016602;28;20488;-79
2024/02/23 09:34:26;;;;;;;2.87;1.83;;;;;;;;;;4999223;28;20429;-78
2024/02/23 09:36:52;;;;;;;5.27;1.47;;;;;;;;;;5005142;28;20505;-78
2024/02/23 09:39:19;;;;;;;6.57;1.47;;;;;;;;;;5015019;28;20591;-78
2024/02/23 09:41:45;;;;;;;6.33;1.80;;;;;;;;;;5016119;28;20434;-78
2024/02/23 09:44:13;;;;;;;2.57;1.57;;;;;;;;;;5001896;28;20904;-79
2024/02/23 09:46:39;;;;;;;3.30;1.33;;;;;;;;;;5016506;28;20461;-79
2024/02/23 09:49:06;;;;;;;5.60;1.43;;;;;;;;;;5017151;28;20410;-78
2024/02/23 09:51:32;;;;;;;1.77;1.40;;;;;;;;;;4999778;28;20508;-78
2024/02/23 09:53:58;;;;;;;7.83;1.37;;;;;;;;;;4998549;28;20419;-81
2024/02/23 09:56:28;;;;;;;2.77;1.50;;;;;;;;;;5008191;28;20426;-80
2024/02/23 09:58:56;;;;;;;8.23;1.60;;;;;;;;;;4994911;28;20415;-79
2024/02/23 10:01:27;;;;;;;1.73;1.17;;;;;;;;;;4998755;28;20459;-81
2024/02/23 10:03:54;;;;;;;5.70;1.70;;;;;;;;;;4999553;28;20422;-80
2024/02/23 10:06:20;;;;;;;3.57;1.53;;;;;;;;;;5002339;28;20427;-77
2024/02/23 10:08:46;;;;;;;5.40;1.50;;;;;;;;;;5003863;28;20443;-79
2024/02/23 10:11:12;;;;;;;3.00;1.53;;;;;;;;;;4999402;28;20870;-77
2024/02/23 10:13:38;;;;;;;2.13;1.50;;;;;;;;;;5014050;28;20886;-78
2024/02/23 10:16:05;;;;;;;4.30;1.40;;;;;;;;;;5017211;28;20446;-77
2024/02/23 10:18:31;;;;;;;7.30;1.40;;;;;;;;;;5023762;28;20414;-78
2024/02/23 10:20:57;;;;;;;3.10;1.23;;;;;;;;;;5014343;28;20961;-77
2024/02/23 10:23:23;;;;;;;7.97;1.93;;;;;;;;;;5012881;28;20940;-77
2024/02/23 10:25:49;;;;;;;4.83;1.30;;;;;;;;;;4995482;28;20426;-79
2024/02/23 10:28:16;;;;;;;5.70;2.03;;;;;;;;;;4998601;28;20426;-78
2024/02/23 10:30:42;;;;;;;7.50;1.90;;;;;;;;;;5016750;28;20464;-77
2024/02/23 10:33:08;;;;;;;4.70;1.67;;;;;;;;;;5022007;28;20774;-77
2024/02/23 10:35:40;;;;;;;5.20;1.57;;;;;;;;;;5017853;28;20410;-78
2024/02/23 10:38:09;;;;;;;7.90;1.90;;;;;;;;;;5016430;28;20461;-78
2024/02/23 10:40:42;;;;;;;5.47;1.47;;;;;;;;;;5014032;28;20499;-77
2024/02/23 10:43:12;;;;;;;6.33;1.60;;;;;;;;;;5017228;28;20409;-78
2024/02/23 10:45:39;;;;;;;2.80;1.47;;;;;;;;;;5015672;28;20698;-78
2024/02/23 10:48:06;;;;;;;4.13;1.30;;;;;;;;;;5017819;28;20483;-79
2024/02/23 10:50:32;;;;;;;11.10;2.23;;;;;;;;;;5035463;28;20503;-80
2024/02/23 10:52:59;;;;;;;4.73;1.40;;;;;;;;;;5035205;28;20929;-77
2024/02/23 10:55:26;;;;;;;4.57;1.67;;;;;;;;;;5031213;28;20429;-78
2024/02/23 10:57:53;;;;;;;4.30;1.40;;;;;;;;;;5017591;28;20903;-79
2024/02/23 11:00:22;;;;;;;11.77;2.90;;;;;;;;;;5033464;28;20429;-79
2024/02/23 11:02:49;;;;;;;4.93;1.40;;;;;;;;;;5018673;28;20422;-79
2024/02/23 11:05:16;;;;;;;2.17;1.63;;;;;;;;;;5017249;28;20410;-78
2024/02/23 11:07:42;;;;;;;13.40;1.80;;;;;;;;;;5014680;28;20416;-76
2024/02/23 11:10:11;;;;;;;7.93;2.07;;;;;;;;;;5013496;28;20925;-78
2024/02/23 11:12:37;;;;;;;3.27;1.77;;;;;;;;;;5013430;28;20995;-79
2024/02/23 11:15:03;;;;;;;5.57;2.20;;;;;;;;;;5017154;28;20497;-76
2024/02/23 11:17:30;;;;;;;2.77;1.70;;;;;;;;;;5017809;28;20410;-77
2024/02/23 11:19:57;;;;;;;11.50;1.70;;;;;;;;;;5015769;28;20902;-78
2024/02/23 11:22:27;;;;;;;4.37;1.90;;;;;;;;;;5007184;28;20931;-75
2024/02/23 11:24:53;;;;;;;4.57;2.07;;;;;;;;;;4994355;28;20415;-75
2024/02/23 11:27:19;;;;;;;7.83;1.90;;;;;;;;;;4994314;28;20522;-76
2024/02/23 11:29:51;;;;;;;4.17;1.60;;;;;;;;;;4994581;28;20782;-76
2024/02/23 11:32:17;;;;;;;6.90;2.33;;;;;;;;;;4994742;28;20459;-76
2024/02/23 11:34:59;;;;;;;5.70;1.60;;;;;;;;;;4994811;28;20505;-76
2024/02/23 11:37:29;;;;;;;3.00;1.93;;;;;;;;;;4996166;28;20422;-76
2024/02/23 11:39:55;;;;;;;2.90;1.40;;;;;;;;;;4997625;28;20913;-79
2024/02/23 11:42:24;;;;;;;8.60;2.13;;;;;;;;;;4996068;28;20431;-75
2024/02/23 11:44:50;;;;;;;6.60;2.00;;;;;;;;;;5004690;28;20905;-74
2024/02/23 11:47:17;;;;;;;4.37;1.70;;;;;;;;;;5012087;28;20501;-76
2024/02/23 11:49:43;;;;;;;6.50;1.60;;;;;;;;;;5011852;28;20792;-76
2024/02/23 11:52:08;;;;;;;9.40;2.17;;;;;;;;;;5012732;28;20476;-77
2024/02/23 11:54:35;;;;;;;6.20;1.80;;;;;;;;;;5015003;28;20440;-77
2024/02/23 11:57:01;;;;;;;3.43;1.87;;;;;;;;;;5015076;28;20796;-77
2024/02/23 11:59:27;;;;;;;6.67;2.17;;;;;;;;;;5011079;28;20414;-77
2024/02/23 12:01:53;;;;;;;5.00;1.97;;;;;;;;;;5013312;28;20603;-76
2024/02/23 12:04:19;;;;;;;12.23;2.27;;;;;;;;;;5013697;28;20509;-77
2024/02/23 12:06:45;;;;;;;2.10;1.37;;;;;;;;;;5013780;28;20496;-73
2024/02/23 12:09:12;;;;;;;7.03;1.90;;;;;;;;;;5013306;28;20830;-75
2024/02/23 12:11:38;;;;;;;7.57;1.90;;;;;;;;;;5013633;28;20473;-77
2024/02/23 12:14:07;;;;;;;7.60;2.77;;;;;;;;;;5036380;23;20422;-75
2024/02/23 12:16:34;;;;;;;6.17;2.23;;;;;;;;;;5000571;28;20415;-75
2024/02/23 12:19:02;;;;;;;3.80;1.67;;;;;;;;;;4994300;28;20428;-75
2024/02/23 12:21:28;;;;;;;5.80;2.23;;;;;;;;;;5003438;28;20414;-75
2024/02/23 12:23:55;;;;;;;6.70;1.73;;;;;;;;;;5006609;28;20502;-75
2024/02/23 12:26:21;;;;;;;5.43;1.77;;;;;;;;;;4991547;28;20485;-75
2024/02/23 12:28:47;;;;;;;5.07;1.83;;;;;;;;;;4995147;28;20740;-74
2024/02/23 12:31:13;;;;;;;7.20;2.00;;;;;;;;;;4994957;28;20454;-74
2024/02/23 12:33:39;;;;;;;11.70;1.40;;;;;;;;;;4993657;28;20481;-76
2024/02/23 12:36:06;;;;;;;4.30;1.60;;;;;;;;;;4994441;28;20984;-76
2024/02/23 12:38:32;;;;;;;5.03;1.67;;;;;;;;;;4994745;28;20423;-76
2024/02/23 12:40:58;;;;;;;5.13;1.80;;;;;;;;;;4996728;28;20461;-76
2024/02/23 12:43:24;;;;;;;9.27;1.63;;;;;;;;;;4996747;28;20453;-75
2024/02/23 12:45:54;;;;;;;15.33;2.87;;;;;;;;;;4993551;28;20450;-76
2024/02/23 12:48:21;;;;;;;4.23;1.20;;;;;;;;;;4990418;28;20419;-74
2024/02/23 12:50:47;;;;;;;3.87;2.00;;;;;;;;;;4994265;28;20499;-75
2024/02/23 12:53:32;;;;;;;7.80;1.80;;;;;;;;;;4995352;28;20968;-74
2024/02/23 12:55:58;;;;;;;4.37;1.67;;;;;;;;;;4993925;28;20881;-77
2024/02/23 12:58:24;;;;;;;3.67;1.87;;;;;;;;;;4994119;28;20898;-75
2024/02/23 13:00:50;;;;;;;6.87;2.93;;;;;;;;;;4992729;28;20514;-76
2024/02/23 13:03:16;;;;;;;7.27;1.67;;;;;;;;;;4998741;28;20415;-77
2024/02/23 13:05:42;;;;;;;3.43;1.40;;;;;;;;;;5007989;28;20821;-76
2024/02/23 13:08:08;;;;;;;3.43;1.37;;;;;;;;;;5004773;28;20411;-74
2024/02/23 13:10:35;;;;;;;3.50;1.67;;;;;;;;;;5004773;28;20411;-74
2024/02/23 13:13:01;;;;;;;5.03;1.93;;;;;;;;;;4996917;28;20415;-73
2024/02/23 13:15:26;;;;;;;4.40;2.50;;;;;;;;;;4992555;28;20458;-75
2024/02/23 13:17:53;;;;;;;5.97;1.70;;;;;;;;;;4993742;28;20920;-76
2024/02/23 13:20:19;;;;;;;10.03;1.63;;;;;;;;;;5004481;28;20411;-80
2024/02/23 13:22:50;;;;;;;4.57;1.77;;;;;;;;;;4999242;28;20423;-81
2024/02/23 13:25:16;;;;;;;3.70;1.50;;;;;;;;;;4993378;28;20442;-81
2024/02/23 13:27:42;;;;;;;12.10;1.77;;;;;;;;;;5000375;28;20492;-77
2024/02/23 13:30:08;;;;;;;7.10;1.70;;;;;;;;;;4995770;28;20430;-77
2024/02/23 13:32:34;;;;;;;7.00;1.60;;;;;;;;;;4996742;28;20473;-77
2024/02/23 13:35:04;;;;;;;6.10;1.83;;;;;;;;;;4996526;28;20436;-76
2024/02/23 13:37:30;;;;;;;6.73;2.17;;;;;;;;;;4999950;28;20415;-77
2024/02/23 13:39:56;;;;;;;10.30;2.07;;;;;;;;;;5003811;28;20408;-77
2024/02/23 13:42:22;;;;;;;8.23;2.00;;;;;;;;;;5006573;28;20446;-78
2024/02/23 13:44:48;;;;;;;5.30;2.40;;;;;;;;;;5004932;28;20431;-77
2024/02/23 13:47:14;;;;;;;3.10;1.67;;;;;;;;;;5005322;28;20433;-78
2024/02/23 13:49:40;;;;;;;6.70;1.93;;;;;;;;;;5005853;28;20418;-74
2024/02/23 13:52:06;;;;;;;4.50;2.17;;;;;;;;;;4991097;28;20505;-74
2024/02/23 13:54:32;;;;;;;7.23;2.37;;;;;;;;;;4996537;28;20478;-78
2024/02/23 13:56:58;;;;;;;14.40;2.47;;;;;;;;;;4994827;28;20879;-77
2024/02/23 13:59:24;;;;;;;7.13;2.30;;;;;;;;;;4992386;28;20430;-76
2024/02/23 14:01:50;;;;;;;3.83;2.20;;;;;;;;;;4992373;28;20886;-77
2024/02/23 14:04:16;;;;;;;2.70;2.27;;;;;;;;;;4993391;28;20525;-76
2024/02/23 14:06:42;;;;;;;6.50;2.03;;;;;;;;;;4997036;28;20470;-76
2024/02/23 14:09:09;;;;;;;10.43;3.60;;;;;;;;;;4998108;28;20829;-76
2024/02/23 14:11:35;;;;;;;7.50;1.70;;;;;;;;;;4997380;28;20836;-76
2024/02/23 14:14:02;;;;;;;8.73;2.17;;;;;;;;;;4998259;28;20418;-77
2024/02/23 14:16:28;;;;;;;17.13;3.33;;;;;;;;;;4998304;28;20417;-77
2024/02/23 14:18:55;;;;;;;4.30;1.60;;;;;;;;;;4998361;28;20494;-76
2024/02/23 14:21:22;;;;;;;10.53;2.90;;;;;;;;;;4998066;28;20978;-77
2024/02/23 14:23:48;;;;;;;6.70;2.00;;;;;;;;;;4998303;28;20894;-76
2024/02/23 14:26:14;;;;;;;5.20;1.77;;;;;;;;;;4998254;28;20435;-77
2024/02/23 14:28:40;;;;;;;6.70;2.40;;;;;;;;;;4997942;28;20423;-74
2024/02/23 14:31:06;;;;;;;4.17;1.73;;;;;;;;;;4997314;28;20660;-77
2024/02/23 14:33:33;;;;;;;5.53;2.20;;;;;;;;;;4996774;28;20863;-74
2024/02/23 14:35:59;;;;;;;7.00;2.50;;;;;;;;;;4996845;28;20949;-76
2024/02/23 14:38:25;;;;;;;17.43;2.37;;;;;;;;;;5001388;28;20422;-77
2024/02/23 14:40:51;;;;;;;5.77;1.63;;;;;;;;;;4999843;28;20411;-77
2024/02/23 14:43:17;;;;;;;10.63;2.47;;;;;;;;;;4997159;28;20473;-77
2024/02/23 14:45:43;;;;;;;6.10;2.00;;;;;;;;;;5000658;28;20757;-77
2024/02/23 14:48:09;;;;;;;4.47;1.80;;;;;;;;;;4999835;28;20417;-75
2024/02/23 14:50:35;;;;;;;3.80;1.50;;;;;;;;;;4999201;28;20501;-77
2024/02/23 14:53:01;;;;;;;15.40;2.43;;;;;;;;;;4999721;28;20505;-77
2024/02/23 14:55:27;;;;;;;7.33;2.50;;;;;;;;;;5000668;28;20427;-77
2024/02/23 14:57:53;;;;;;;15.93;2.40;;;;;;;;;;4998304;28;20411;-77
2024/02/23 15:00:19;;;;;;;6.63;1.70;;;;;;;;;;4999104;28;20411;-77
2024/02/23 15:02:45;;;;;;;9.77;1.87;;;;;;;;;;4994912;28;20465;-76
2024/02/23 15:05:11;;;;;;;6.17;2.00;;;;;;;;;;4994861;28;20941;-73
2024/02/23 15:07:37;;;;;;;9.23;2.40;;;;;;;;;;4991674;28;20442;-73
2024/02/23 15:10:08;;;;;;;11.57;2.00;;;;;;;;;;4988440;28;20424;-73
2024/02/23 15:12:34;;;;;;;9.33;1.63;;;;;;;;;;4994117;28;20488;-73
2024/02/23 15:15:00;;;;;;;4.73;1.93;;;;;;;;;;4995390;28;20464;-73
2024/02/23 15:17:26;;;;;;;9.13;1.90;;;;;;;;;;4994115;28;20427;-74
2024/02/23 15:19:52;;;;;;;6.53;1.70;;;;;;;;;;4996217;28;20501;-74
2024/02/23 15:22:19;;;;;;;5.23;2.30;;;;;;;;;;4993109;28;20934;-76
2024/02/23 15:24:49;;;;;;;8.00;1.80;;;;;;;;;;4995400;28;20950;-74
2024/02/23 15:27:15;;;;;;;7.27;2.43;;;;;;;;;;4990771;28;20433;-75
2024/02/23 15:29:41;;;;;;;11.53;2.70;;;;;;;;;;4995392;28;20422;-76
2024/02/23 15:32:07;;;;;;;6.50;2.30;;;;;;;;;;4995159;28;20478;-74
2024/02/23 15:34:33;;;;;;;14.27;3.23;;;;;;;;;;4996630;28;20443;-73
2024/02/23 15:36:59;;;;;;;4.07;1.70;;;;;;;;;;4996310;28;20822;-76
2024/02/23 15:39:25;;;;;;;7.07;2.30;;;;;;;;;;4995944;28;20427;-76
2024/02/23 15:41:51;;;;;;;6.67;2.63;;;;;;;;;;4996065;28;20733;-76
2024/02/23 15:44:17;;;;;;;3.50;1.50;;;;;;;;;;4997071;28;20966;-75
2024/02/23 15:46:43;;;;;;;8.00;2.43;;;;;;;;;;4997947;28;20427;-75
2024/02/23 15:49:09;;;;;;;4.80;2.33;;;;;;;;;;4998785;28;20426;-76
2024/02/23 15:51:37;;;;;;;8.50;2.73;;;;;;;;;;4997183;28;20462;-76
2024/02/23 15:54:03;;;;;;;11.93;2.20;;;;;;;;;;4996988;28;20526;-76
2024/02/23 15:56:29;;;;;;;4.93;1.63;;;;;;;;;;4998148;28;20411;-76
2024/02/23 15:58:55;;;;;;;8.90;2.70;;;;;;;;;;4991716;28;20902;-76
2024/02/23 16:01:21;;;;;;;9.70;2.13;;;;;;;;;;4995247;28;20419;-75
2024/02/23 16:03:48;;;;;;;8.10;2.43;;;;;;;;;;4990536;28;20543;-78
2024/02/23 16:06:14;;;;;;;9.40;2.53;;;;;;;;;;4992369;28;20884;-71
2024/02/23 16:08:44;;;;;;;8.47;2.97;;;;;;;;;;4995142;28;20499;-76
2024/02/23 16:11:10;;;;;;;5.30;2.10;;;;;;;;;;5002479;28;20465;-76
2024/02/23 16:13:37;;;;;;;4.23;2.40;;;;;;;;;;4994372;28;20446;-75
2024/02/23 16:16:04;;;;;;;5.40;1.90;;;;;;;;;;4995029;28;20553;-77
2024/02/23 16:18:30;;;;;;;16.03;3.77;;;;;;;;;;4994416;28;20423;-77
2024/02/23 16:20:56;;;;;;;7.33;3.40;;;;;;;;;;4993590;28;20477;-74
2024/02/23 16:23:22;;;;;;;10.03;3.00;;;;;;;;;;4995671;28;20411;-76
2024/02/23 16:25:48;;;;;;;13.23;3.50;;;;;;;;;;4994982;28;20435;-75
2024/02/23 16:28:14;;;;;;;5.57;2.43;;;;;;;;;;4992428;28;20417;-76
2024/02/23 16:30:40;;;;;;;5.30;2.10;;;;;;;;;;4994225;28;20418;-76
2024/02/23 16:33:06;;;;;;;5.40;1.87;;;;;;;;;;4994813;28;20438;-74
2024/02/23 16:35:32;;;;;;;4.07;1.70;;;;;;;;;;4994745;28;20522;-75
2024/02/23 16:37:59;;;;;;;5.17;2.00;;;;;;;;;;4995372;28;20446;-74
2024/02/23 16:40:28;;;;;;;10.27;3.30;;;;;;;;;;4996044;28;20407;-75
2024/02/23 16:42:57;;;;;;;7.47;3.07;;;;;;;;;;4994747;28;20418;-75
2024/02/23 16:45:27;;;;;;;9.37;3.50;;;;;;;;;;4995118;28;20443;-75
2024/02/23 16:47:53;;;;;;;5.03;2.47;;;;;;;;;;4996211;28;20914;-75
2024/02/23 16:50:20;;;;;;;3.73;2.30;;;;;;;;;;4994944;28;20412;-75
2024/02/23 16:52:46;;;;;;;5.80;2.67;;;;;;;;;;4993991;28;20553;-75
2024/02/23 16:55:12;;;;;;;3.47;2.47;;;;;;;;;;4993732;28;20438;-75
2024/02/23 16:57:38;;;;;;;7.10;2.03;;;;;;;;;;4993381;28;20807;-75
2024/02/23 17:00:05;;;;;;;5.70;1.90;;;;;;;;;;4992105;28;20446;-76
2024/02/23 17:02:31;;;;;;;5.90;1.77;;;;;;;;;;4993457;28;20430;-76
2024/02/23 17:05:00;;;;;;;6.47;2.17;;;;;;;;;;4993509;28;20538;-76
2024/02/23 17:07:27;;;;;;;10.90;2.50;;;;;;;;;;4992092;28;20419;-75
2024/02/23 17:09:53;;;;;;;10.17;2.23;;;;;;;;;;4993942;28;20419;-75
2024/02/23 17:12:20;;;;;;;9.97;2.50;;;;;;;;;;4993067;28;20473;-75
2024/02/23 17:14:46;;;;;;;12.60;3.07;;;;;;;;;;4993584;28;20447;-76
2024/02/23 17:17:13;;;;;;;7.60;2.97;;;;;;;;;;4993914;28;20410;-74
2024/02/23 17:19:40;;;;;;;4.00;2.47;;;;;;;;;;4993313;28;20411;-75
2024/02/23 17:22:06;;;;;;;9.67;3.30;;;;;;;;;;4992802;28;20498;-75
2024/02/23 17:24:32;;;;;;;17.73;5.47;;;;;;;;;;4992965;28;20470;-75
2024/02/23 17:26:58;;;;;;;15.13;4.27;;;;;;;;;;4993450;28;20469;-76
2024/02/23 17:29:27;;;;;;;15.30;4.13;;;;;;;;;;4992529;28;20422;-75
2024/02/23 17:31:53;;;;;;;10.57;4.70;;;;;;;;;;4991362;28;20528;-75
2024/02/23 17:34:19;;;;;;;15.13;4.63;;;;;;;;;;4991393;28;20946;-74
2024/02/23 17:36:47;;;;;;;15.93;4.30;;;;;;;;;;4992873;28;20506;-74
2024/02/23 17:39:15;;;;;;;9.33;3.10;;;;;;;;;;4991237;28;20457;-75
2024/02/23 17:41:41;;;;;;;9.50;4.00;;;;;;;;;;4992870;28;20911;-76
2024/02/23 17:44:08;;;;;;;10.53;2.93;;;;;;;;;;4992645;28;20407;-75
2024/02/23 17:46:34;;;;;;;7.60;3.23;;;;;;;;;;4992830;28;20909;-75
2024/02/23 17:49:00;;;;;;;11.53;4.00;;;;;;;;;;4993187;28;20446;-75
2024/02/23 17:51:25;;;;;;;10.63;3.93;;;;;;;;;;4991369;28;20524;-75
2024/02/23 17:53:52;;;;;;;13.00;4.53;;;;;;;;;;4992498;28;20415;-76
2024/02/23 17:56:18;;;;;;;12.90;4.40;;;;;;;;;;4992878;28;20961;-74
2024/02/23 17:58:47;;;;;;;11.07;4.30;;;;;;;;;;4991297;28;20418;-75
2024/02/23 18:01:15;;;;;;;12.87;4.47;;;;;;;;;;4992454;28;20573;-75
2024/02/23 18:03:41;;;;;;;7.77;4.10;;;;;;;;;;4991008;28;20462;-74
2024/02/23 18:06:07;;;;;;;14.53;4.37;;;;;;;;;;4991190;28;20544;-74
2024/02/23 18:08:36;;;;;;;9.10;4.10;;;;;;;;;;4992691;28;20418;-73
2024/02/23 18:11:02;;;;;;;18.87;4.73;;;;;;;;;;4992427;28;20415;-75
2024/02/23 18:13:28;;;;;;;11.00;3.90;;;;;;;;;;4992431;28;20447;-74
2024/02/23 18:15:54;;;;;;;17.40;3.63;;;;;;;;;;5707806;23;21420;-75
2024/02/23 18:18:20;;;;;;;10.33;3.50;;;;;;;;;;5032148;28;20412;-75
2024/02/23 18:20:45;;;;;;;8.47;3.40;;;;;;;;;;5031353;28;20402;-75
2024/02/23 18:23:11;;;;;;;7.87;2.77;;;;;;;;;;5028291;28;20417;-75
2024/02/23 18:25:37;;;;;;;10.67;2.60;;;;;;;;;;5011035;28;20865;-75
2024/02/23 18:28:03;;;;;;;6.73;2.70;;;;;;;;;;5022521;28;20405;-77
2024/02/23 18:30:29;;;;;;;10.33;2.83;;;;;;;;;;5032739;28;20406;-77
2024/02/23 18:32:55;;;;;;;7.10;2.67;;;;;;;;;;5032789;28;21098;-77
2024/02/23 18:35:22;;;;;;;6.50;3.23;;;;;;;;;;5036391;28;20516;-76
2024/02/23 18:37:47;;;;;;;9.03;2.70;;;;;;;;;;5031877;28;20550;-77
2024/02/23 18:40:13;;;;;;;4.67;2.93;;;;;;;;;;5030788;28;20488;-76
2024/02/23 18:42:39;;;;;;;5.30;2.40;;;;;;;;;;5031901;28;20420;-76
2024/02/23 18:45:06;;;;;;;6.60;2.57;;;;;;;;;;5031936;28;20441;-76
2024/02/23 18:47:32;;;;;;;13.43;3.07;;;;;;;;;;5032766;28;20428;-76
2024/02/23 18:49:59;;;;;;;5.33;2.60;;;;;;;;;;5032589;28;20417;-75
2024/02/23 18:52:25;;;;;;;7.43;2.67;;;;;;;;;;5034970;28;20544;-76
2024/02/23 18:54:52;;;;;;;8.27;2.20;;;;;;;;;;5037506;28;20457;-76
2024/02/23 18:57:18;;;;;;;5.90;2.50;;;;;;;;;;5040044;28;20427;-76
2024/02/23 18:59:44;;;;;;;5.70;2.40;;;;;;;;;;5037294;28;20409;-76
2024/02/23 19:02:10;;;;;;;7.13;2.50;;;;;;;;;;5036720;28;20420;-76
2024/02/23 19:04:36;;;;;;;11.47;3.40;;;;;;;;;;5034555;28;20449;-75
2024/02/23 19:07:02;;;;;;;4.77;2.60;;;;;;;;;;5036203;28;20896;-75
2024/02/23 19:09:28;;;;;;;4.80;2.20;;;;;;;;;;5036108;28;20776;-75
2024/02/23 19:11:54;;;;;;;6.43;2.67;;;;;;;;;;5034338;28;20460;-75
2024/02/23 19:14:20;;;;;;;5.27;2.80;;;;;;;;;;5035856;28;20428;-77
2024/02/23 19:16:46;;;;;;;6.20;2.97;;;;;;;;;;5035749;28;20413;-77
2024/02/23 19:19:12;;;;;;;3.23;2.10;;;;;;;;;;5036124;28;20405;-77
2024/02/23 19:21:38;;;;;;;6.83;3.23;;;;;;;;;;5035085;28;20440;-77
2024/02/23 19:24:04;;;;;;;6.17;3.10;;;;;;;;;;5035308;28;20409;-77
2024/02/23 19:26:30;;;;;;;8.67;3.10;;;;;;;;;;5034258;28;20429;-77
2024/02/23 19:28:56;;;;;;;6.27;2.90;;;;;;;;;;5037462;28;20448;-77
2024/02/23 19:31:25;;;;;;;7.50;3.37;;;;;;;;;;5035523;28;20449;-76
2024/02/23 19:33:51;;;;;;;6.03;3.63;;;;;;;;;;5035463;28;20410;-76
2024/02/23 19:36:17;;;;;;;10.20;3.47;;;;;;;;;;5034391;28;20513;-76
2024/02/23 19:38:46;;;;;;;10.50;3.97;;;;;;;;;;5036783;28;20896;-77
2024/02/23 19:41:12;;;;;;;10.60;2.50;;;;;;;;;;5036191;28;20405;-77
2024/02/23 19:43:38;;;;;;;13.67;4.60;;;;;;;;;;5036925;28;20452;-76
2024/02/23 19:46:04;;;;;;;6.30;3.90;;;;;;;;;;5038133;28;20441;-76
2024/02/23 19:48:30;;;;;;;8.90;2.67;;;;;;;;;;5036461;28;20445;-75
2024/02/23 19:50:56;;;;;;;8.93;3.13;;;;;;;;;;5040492;28;20421;-77
2024/02/23 19:53:21;;;;;;;8.97;4.07;;;;;;;;;;5038450;28;20913;-77
2024/02/23 19:55:47;;;;;;;5.83;3.30;;;;;;;;;;5041626;28;21003;-77
2024/02/23 19:58:13;;;;;;;11.50;3.17;;;;;;;;;;5041379;28;20880;-77
2024/02/23 20:00:39;;;;;;;6.73;3.50;;;;;;;;;;5039777;28;20405;-76
2024/02/23 20:03:05;;;;;;;6.13;2.60;;;;;;;;;;5034852;28;20827;-76
2024/02/23 20:05:31;;;;;;;14.93;3.60;;;;;;;;;;5034627;28;20429;-76
2024/02/23 20:07:57;;;;;;;4.53;2.77;;;;;;;;;;5034491;28;20773;-75
2024/02/23 20:10:23;;;;;;;6.67;2.77;;;;;;;;;;5037360;28;20421;-76
2024/02/23 20:12:50;;;;;;;5.30;3.03;;;;;;;;;;5038708;28;20456;-77
2024/02/23 20:15:16;;;;;;;12.40;3.67;;;;;;;;;;5039126;28;20931;-76
2024/02/23 20:17:46;;;;;;;9.63;3.80;;;;;;;;;;5050807;28;20497;-74
2024/02/23 20:20:12;;;;;;;15.27;5.17;;;;;;;;;;5056269;28;20409;-75
2024/02/23 20:22:38;;;;;;;11.50;4.70;;;;;;;;;;5052015;28;20504;-75
2024/02/23 20:25:05;;;;;;;8.80;4.00;;;;;;;;;;5055370;28;20471;-75
2024/02/23 20:27:31;;;;;;;10.80;4.00;;;;;;;;;;5050480;28;20417;-75
2024/02/23 20:29:57;;;;;;;7.80;4.23;;;;;;;;;;5042008;28;20413;-76
2024/02/23 20:32:23;;;;;;;13.53;3.90;;;;;;;;;;5034180;28;20991;-76
2024/02/23 20:34:49;;;;;;;10.47;3.77;;;;;;;;;;5035081;28;20440;-77
2024/02/23 20:37:15;;;;;;;7.03;5.00;;;;;;;;;;5039940;28;20939;-76